createdAt,value
2019-04-22T00:01:56.897Z,11.90
2019-04-22T00:04:36.553Z,12.00
2019-04-22T00:07:17.401Z,11.90
2019-04-22T00:09:51.745Z,11.90
2019-04-22T00:12:27.967Z,11.80
2019-04-22T00:14:52.511Z,11.80
2019-04-22T00:17:45.226Z,12.00
2019-04-22T00:20:04.978Z,11.90
2019-04-22T00:22:32.648Z,11.80
2019-04-22T00:25:08.037Z,11.90
2019-04-22T00:27:42.829Z,11.90
2019-04-22T00:30:13.247Z,11.70
2019-04-22T00:32:41.885Z,11.70
2019-04-22T00:35:18.228Z,11.70
2019-04-22T00:37:57.015Z,11.80
2019-04-22T00:40:30.978Z,11.70
2019-04-22T00:45:35.291Z,11.60
2019-04-22T00:48:05.274Z,11.60
2019-04-22T00:50:57.815Z,11.60
2019-04-22T00:53:09.290Z,11.60
2019-04-22T00:58:40.700Z,11.50
2019-04-22T01:01:17.481Z,11.60
2019-04-22T01:06:20.355Z,11.60
2019-04-22T01:08:57.802Z,11.50
2019-04-22T01:13:55.745Z,11.40
2019-04-22T01:16:32.438Z,11.30
2019-04-22T01:19:04.728Z,11.30
2019-04-22T01:21:39.173Z,11.40
2019-04-22T01:24:02.879Z,11.40
2019-04-22T01:26:36.246Z,11.40
2019-04-22T01:29:05.035Z,11.30
2019-04-22T01:31:30.493Z,11.30
2019-04-22T01:34:14.139Z,11.50
2019-04-22T01:36:55.535Z,11.40
2019-04-22T01:39:33.835Z,11.50
2019-04-22T01:47:13.462Z,11.50
2019-04-22T01:49:39.858Z,11.50
2019-04-22T01:52:12.748Z,11.40
2019-04-22T01:54:48.433Z,11.40
2019-04-22T01:57:17.189Z,11.30
2019-04-22T01:59:45.829Z,11.40
2019-04-22T02:02:30.546Z,11.30
2019-04-22T02:05:01.230Z,11.20
2019-04-22T02:07:29.512Z,11.30
2019-04-22T02:10:04.007Z,11.30
2019-04-22T02:12:39.831Z,11.10
2019-04-22T02:15:12.485Z,11.00
2019-04-22T02:20:10.651Z,11.00
2019-04-22T02:23:40.782Z,10.90
2019-04-22T02:25:57.988Z,10.90
2019-04-22T02:28:32.322Z,10.90
2019-04-22T02:31:20.628Z,10.80
2019-04-22T02:36:20.253Z,11.00
2019-04-22T02:38:57.376Z,11.00
2019-04-22T02:43:56.962Z,10.90
2019-04-22T02:46:39.746Z,10.90
2019-04-22T02:51:22.975Z,10.90
2019-04-22T02:59:08.459Z,10.90
2019-04-22T03:01:33.096Z,10.90
2019-04-22T03:04:06.632Z,10.70
2019-04-22T03:06:38.520Z,10.70
2019-04-22T03:11:52.544Z,10.70
2019-04-22T03:14:08.698Z,10.70
2019-04-22T03:16:43.200Z,10.50
2019-04-22T03:21:50.249Z,10.50
2019-04-22T03:26:52.353Z,10.50
2019-04-22T03:30:33.674Z,10.50
2019-04-22T03:37:49.112Z,10.80
2019-04-22T03:42:52.239Z,10.80
2019-04-22T04:00:42.912Z,10.80
2019-04-22T04:10:46.096Z,10.60
2019-04-22T04:15:38.416Z,10.70
2019-04-22T04:18:30.876Z,10.80
2019-04-22T04:21:00.606Z,10.70
2019-04-22T04:23:31.022Z,10.70
2019-04-22T04:25:52.686Z,10.70
2019-04-22T04:30:59.829Z,10.70
2019-04-22T04:33:38.876Z,10.60
2019-04-22T04:36:11.572Z,10.60
2019-04-22T04:41:21.620Z,10.70
2019-04-22T04:46:27.213Z,10.40
2019-04-22T04:49:00.071Z,10.40
2019-04-22T04:54:05.680Z,10.40
2019-04-22T04:59:16.911Z,10.30
2019-04-22T05:01:36.023Z,10.40
2019-04-22T05:11:51.971Z,10.30
2019-04-22T05:16:46.395Z,10.50
2019-04-22T05:19:23.942Z,10.50
2019-04-22T05:21:53.463Z,10.50
2019-04-22T05:24:26.242Z,10.60
2019-04-22T05:26:56.755Z,10.70
2019-04-22T05:29:34.661Z,10.50
2019-04-22T05:31:59.725Z,10.50
2019-04-22T05:34:28.757Z,10.60
2019-04-22T05:40:34.672Z,10.80
2019-04-22T05:43:22.714Z,10.70
2019-04-22T05:45:59.275Z,10.60
2019-04-22T05:49:14.543Z,10.70
2019-04-22T05:52:04.705Z,10.90
2019-04-22T05:54:30.396Z,10.90
2019-04-22T05:57:31.606Z,10.90
2019-04-22T06:04:24.521Z,11.10
2019-04-22T06:07:01.057Z,11.20
2019-04-22T06:09:55.375Z,11.10
2019-04-22T06:12:32.767Z,11.20
2019-04-22T06:15:12.794Z,11.40
2019-04-22T06:17:55.119Z,11.50
2019-04-22T06:20:50.136Z,11.50
2019-04-22T06:23:36.044Z,11.50
2019-04-22T06:30:07.712Z,11.70
2019-04-22T06:32:53.964Z,11.80
2019-04-22T06:38:30.205Z,12.10
2019-04-22T06:40:55.385Z,12.30
2019-04-22T06:44:05.004Z,12.40
2019-04-22T06:52:52.523Z,12.80
2019-04-22T06:56:42.709Z,12.90
2019-04-22T06:59:31.258Z,13.10
2019-04-22T07:02:16.575Z,13.20
2019-04-22T07:08:16.056Z,13.40
2019-04-22T07:10:51.876Z,13.50
2019-04-22T07:13:35.889Z,13.60
2019-04-22T07:16:13.217Z,13.70
2019-04-22T07:19:24.347Z,13.80
2019-04-22T07:21:41.575Z,13.90
2019-04-22T07:24:40.426Z,14.10
2019-04-22T07:26:58.586Z,14.20
2019-04-22T07:29:42.781Z,14.40
2019-04-22T07:36:17.559Z,14.70
2019-04-22T07:43:21.406Z,15.20
2019-04-22T07:45:48.949Z,15.50
2019-04-22T07:48:33.407Z,15.60
2019-04-22T07:51:11.665Z,15.70
2019-04-22T07:53:23.037Z,15.90
2019-04-22T07:56:03.586Z,16.00
2019-04-22T07:58:29.015Z,16.20
2019-04-22T08:01:09.061Z,16.20
2019-04-22T08:03:49.985Z,16.40
2019-04-22T08:06:12.345Z,16.40
2019-04-22T08:08:37.318Z,16.50
2019-04-22T08:11:30.135Z,16.70
2019-04-22T08:14:20.965Z,17.00
2019-04-22T08:17:05.851Z,17.10
2019-04-22T08:19:33.155Z,17.10
2019-04-22T08:22:01.199Z,17.30
2019-04-22T08:24:42.059Z,17.20
2019-04-22T08:27:10.340Z,17.50
2019-04-22T08:29:56.634Z,17.60
2019-04-22T08:32:14.241Z,17.90
2019-04-22T08:34:47.460Z,18.00
2019-04-22T08:40:03.544Z,18.50
2019-04-22T08:42:43.416Z,18.60
2019-04-22T08:50:12.060Z,18.70
2019-04-22T08:52:44.698Z,18.90
2019-04-22T08:58:03.672Z,19.10
2019-04-22T09:00:21.556Z,19.20
2019-04-22T09:03:00.622Z,19.20
2019-04-22T09:05:55.375Z,19.40
2019-04-22T09:08:14.261Z,19.60
2019-04-22T09:13:10.231Z,19.90
2019-04-22T09:15:53.157Z,20.00
2019-04-22T09:23:37.152Z,20.00
2019-04-22T09:26:27.088Z,20.30
2019-04-22T09:29:20.922Z,20.40
2019-04-22T09:32:45.521Z,20.50
2019-04-22T09:35:24.915Z,20.50
2019-04-22T09:41:06.485Z,20.60
2019-04-22T09:46:52.184Z,20.20
2019-04-22T09:49:26.758Z,20.00
2019-04-22T09:52:54.923Z,20.00
2019-04-22T09:55:53.191Z,20.00
2019-04-22T09:58:38.550Z,20.30
2019-04-22T10:01:30.754Z,20.70
2019-04-22T10:03:56.746Z,21.00
2019-04-22T10:06:36.720Z,21.10
2019-04-22T10:15:33.761Z,20.90
2019-04-22T10:18:16.297Z,21.10
2019-04-22T10:21:27.311Z,21.30
2019-04-22T10:30:48.416Z,21.60
2019-04-22T10:35:55.324Z,21.40
2019-04-22T10:38:40.028Z,21.50
2019-04-22T10:41:26.406Z,22.00
2019-04-22T10:44:01.226Z,22.40
2019-04-22T10:46:56.071Z,22.60
2019-04-22T10:50:20.608Z,22.60
2019-04-22T10:55:21.600Z,22.80
2019-04-22T10:56:36.953Z,22.30
2019-04-22T10:59:10.949Z,22.40
2019-04-22T11:01:48.763Z,22.70
2019-04-22T11:04:32.497Z,22.70
2019-04-22T11:11:26.310Z,22.40
2019-04-22T11:14:12.683Z,22.60
2019-04-22T11:28:23.531Z,23.50
2019-04-22T11:31:10.425Z,23.70
2019-04-22T11:38:22.690Z,23.90
2019-04-22T11:45:39.527Z,24.00
2019-04-22T11:48:42.385Z,24.40
2019-04-22T11:51:24.154Z,24.50
2019-04-22T11:54:12.543Z,24.10
2019-04-22T12:01:39.011Z,24.30
2019-04-22T12:05:03.854Z,24.60
2019-04-22T12:07:57.331Z,24.80
2019-04-22T12:10:47.142Z,24.90
2019-04-22T12:13:49.828Z,24.50
2019-04-22T12:17:22.419Z,25.10
2019-04-22T12:20:27.546Z,24.90
2019-04-22T12:23:16.914Z,25.30
2019-04-22T12:25:54.261Z,25.00
2019-04-22T12:28:21.254Z,25.00
2019-04-22T12:31:01.611Z,25.00
2019-04-22T12:33:47.467Z,24.90
2019-04-22T12:36:26.482Z,25.10
2019-04-22T12:39:03.285Z,25.10
2019-04-22T12:41:42.388Z,25.60
2019-04-22T12:44:41.789Z,25.80
2019-04-22T12:48:08.477Z,25.80
2019-04-22T12:50:58.991Z,25.30
2019-04-22T12:58:11.906Z,25.70
2019-04-22T13:05:20.122Z,25.60
2019-04-22T13:07:59.884Z,25.60
2019-04-22T13:10:50.479Z,26.10
2019-04-22T13:13:13.121Z,25.90
2019-04-22T13:15:49.031Z,25.80
2019-04-22T13:18:29.353Z,25.80
2019-04-22T13:20:56.935Z,25.90
2019-04-22T13:23:39.136Z,25.80
2019-04-22T13:26:16.955Z,25.60
2019-04-22T13:29:15.054Z,26.10
2019-04-22T13:32:11.369Z,26.20
2019-04-22T13:34:46.651Z,26.10
2019-04-22T13:37:36.922Z,25.90
2019-04-22T13:41:26.732Z,26.30
2019-04-22T13:43:53.846Z,26.30
2019-04-22T13:46:32.138Z,26.20
2019-04-22T13:53:28.956Z,26.40
2019-04-22T13:55:59.248Z,26.00
2019-04-22T13:58:58.496Z,26.70
2019-04-22T14:01:54.647Z,26.20
2019-04-22T14:05:24.577Z,26.70
2019-04-22T14:08:37.564Z,27.00
2019-04-22T14:11:31.320Z,26.40
2019-04-22T14:13:54.634Z,26.70
2019-04-22T14:17:04.953Z,26.10
2019-04-22T14:23:35.667Z,26.40
2019-04-22T14:26:17.706Z,26.60
2019-04-22T14:29:06.106Z,26.30
2019-04-22T14:31:42.377Z,26.50
2019-04-22T14:34:46.933Z,26.60
2019-04-22T14:37:24.346Z,27.30
2019-04-22T14:40:09.279Z,27.30
2019-04-22T14:43:57.836Z,27.10
2019-04-22T14:46:32.037Z,27.10
2019-04-22T14:49:00.880Z,26.50
2019-04-22T14:51:41.827Z,26.50
2019-04-22T14:54:13.749Z,26.50
2019-04-22T14:56:34.270Z,26.10
2019-04-22T14:59:19.134Z,26.70
2019-04-22T15:02:03.529Z,26.60
2019-04-22T15:05:16.363Z,26.70
2019-04-22T15:07:57.059Z,26.40
2019-04-22T15:10:36.062Z,26.20
2019-04-22T15:13:51.629Z,26.90
2019-04-22T15:17:00.802Z,26.50
2019-04-22T15:21:04.878Z,26.80
2019-04-22T15:23:38.507Z,26.30
2019-04-22T15:26:42.528Z,26.80
2019-04-22T15:30:55.575Z,26.60
2019-04-22T15:33:48.035Z,26.60
2019-04-22T15:36:19.986Z,26.60
2019-04-22T15:39:05.128Z,26.10
2019-04-22T15:41:55.546Z,26.20
2019-04-22T15:44:37.654Z,25.80
2019-04-22T15:51:24.640Z,25.40
2019-04-22T15:54:39.447Z,25.20
2019-04-22T15:58:01.613Z,25.30
2019-04-22T16:00:45.939Z,25.20
2019-04-22T16:03:10.070Z,25.10
2019-04-22T16:05:43.918Z,24.90
2019-04-22T16:08:16.997Z,25.10
2019-04-22T16:10:48.155Z,25.40
2019-04-22T16:13:23.240Z,25.40
2019-04-22T16:15:52.190Z,25.30
2019-04-22T16:18:24.199Z,25.30
2019-04-22T16:20:56.390Z,25.30
2019-04-22T16:23:51.993Z,25.60
2019-04-22T16:26:33.483Z,25.50
2019-04-22T16:29:05.302Z,25.70
2019-04-22T16:31:37.644Z,25.60
2019-04-22T16:34:11.339Z,25.40
2019-04-22T16:36:42.851Z,25.50
2019-04-22T16:39:15.117Z,25.60
2019-04-22T16:41:46.665Z,25.50
2019-04-22T16:44:18.625Z,25.50
2019-04-22T16:46:49.990Z,25.40
2019-04-22T16:49:21.495Z,25.20
2019-04-22T16:51:52.157Z,25.20
2019-04-22T16:54:24.233Z,25.20
2019-04-22T16:56:57.556Z,25.00
2019-04-22T16:59:36.947Z,24.80
2019-04-22T17:02:41.731Z,24.60
2019-04-22T17:05:41.398Z,24.50
2019-04-22T17:08:12.329Z,24.40
2019-04-22T17:10:43.904Z,24.30
2019-04-22T17:13:19.686Z,24.10
2019-04-22T17:15:47.268Z,24.20
2019-04-22T17:18:25.448Z,24.20
2019-04-22T17:20:58.464Z,24.10
2019-04-22T17:23:29.680Z,24.00
2019-04-22T17:26:12.577Z,24.00
2019-04-22T17:28:51.213Z,24.20
2019-04-22T17:31:50.221Z,24.30
2019-04-22T17:34:15.790Z,24.40
2019-04-22T17:36:46.676Z,24.30
2019-04-22T17:39:31.562Z,24.30
2019-04-22T17:42:09.663Z,24.30
2019-04-22T17:44:54.248Z,24.00
2019-04-22T17:47:41.401Z,24.00
2019-04-22T17:50:21.501Z,23.90
2019-04-22T17:53:03.173Z,23.80
2019-04-22T17:55:24.254Z,23.40
2019-04-22T17:57:53.675Z,22.90
2019-04-22T18:00:34.764Z,22.40
2019-04-22T18:05:57.413Z,21.60
2019-04-22T18:08:45.422Z,21.20
2019-04-22T18:11:27.239Z,21.10
2019-04-22T18:13:58.848Z,20.90
2019-04-22T18:16:26.170Z,20.70
2019-04-22T18:18:59.929Z,20.60
2019-04-22T18:21:29.191Z,20.60
2019-04-22T18:23:54.009Z,20.30
2019-04-22T18:26:32.292Z,20.30
2019-04-22T18:29:07.165Z,20.10
2019-04-22T18:31:31.706Z,20.00
2019-04-22T18:34:06.952Z,19.90
2019-04-22T18:36:41.659Z,19.70
2019-04-22T18:39:33.422Z,19.70
2019-04-22T18:41:52.058Z,19.60
2019-04-22T18:44:35.105Z,19.50
2019-04-22T18:47:05.485Z,19.40
2019-04-22T18:49:42.813Z,19.20
2019-04-22T18:52:39.481Z,19.10
2019-04-22T18:55:26.762Z,18.90
2019-04-22T18:58:55.849Z,18.80
2019-04-22T19:02:27.185Z,18.70
2019-04-22T19:08:36.658Z,18.50
2019-04-22T19:11:16.711Z,18.20
2019-04-22T19:19:43.728Z,18.20
2019-04-22T19:22:25.233Z,18.20
2019-04-22T19:25:21.296Z,17.90
2019-04-22T19:28:19.198Z,17.90
2019-04-22T19:31:23.087Z,17.90
2019-04-22T19:34:00.750Z,17.80
2019-04-22T19:36:51.895Z,17.70
2019-04-22T19:39:31.014Z,17.60
2019-04-22T19:42:40.826Z,17.60
2019-04-22T19:45:05.840Z,17.50
2019-04-22T19:47:58.205Z,17.40
2019-04-22T19:50:21.340Z,17.40
2019-04-22T19:52:59.458Z,17.20
2019-04-22T19:55:35.938Z,17.20
2019-04-22T19:58:20.066Z,17.10
2019-04-22T20:01:41.729Z,17.10
2019-04-22T20:05:05.921Z,17.00
2019-04-22T20:10:30.026Z,16.90
2019-04-22T20:13:04.335Z,16.80
2019-04-22T20:15:33.437Z,16.90
2019-04-22T20:20:46.554Z,16.80
2019-04-22T20:23:14.496Z,16.60
2019-04-22T20:25:46.380Z,16.60
2019-04-22T20:28:24.181Z,16.50
2019-04-22T20:30:55.726Z,16.60
2019-04-22T20:33:29.273Z,16.50
2019-04-22T20:36:03.548Z,16.30
2019-04-22T20:38:29.673Z,16.30
2019-04-22T20:41:05.753Z,16.30
2019-04-22T20:43:40.347Z,16.30
2019-04-22T20:46:11.514Z,16.30
2019-04-22T20:48:48.356Z,16.20
2019-04-22T20:51:29.716Z,16.10
2019-04-22T20:53:57.778Z,16.10
2019-04-22T20:56:26.811Z,16.10
2019-04-22T20:58:57.184Z,16.20
2019-04-22T21:01:28.310Z,16.30
2019-04-22T21:03:50.914Z,16.20
2019-04-22T21:06:33.518Z,16.20
2019-04-22T21:09:12.105Z,16.20
2019-04-22T21:11:38.448Z,16.20
2019-04-22T21:14:12.020Z,16.00
2019-04-22T21:16:47.825Z,15.90
2019-04-22T21:19:25.975Z,15.90
2019-04-22T21:21:54.697Z,15.90
2019-04-22T21:24:21.834Z,15.90
2019-04-22T21:26:58.363Z,15.90
2019-04-22T21:29:20.769Z,16.00
2019-04-22T21:32:01.467Z,15.90
2019-04-22T21:34:35.326Z,15.80
2019-04-22T21:37:07.575Z,15.70
2019-04-22T21:39:30.830Z,15.80
2019-04-22T21:42:11.852Z,15.70
2019-04-22T21:44:42.665Z,15.60
2019-04-22T21:47:26.540Z,15.70
2019-04-22T21:49:55.070Z,15.60
2019-04-22T21:52:26.022Z,15.70
2019-04-22T21:55:03.865Z,15.70
2019-04-22T21:58:05.173Z,15.50
2019-04-22T22:03:15.929Z,15.50
2019-04-22T22:05:38.468Z,15.30
2019-04-22T22:08:20.340Z,15.40
2019-04-22T22:10:45.294Z,15.40
2019-04-22T22:13:17.058Z,15.30
2019-04-22T22:15:53.692Z,15.30
2019-04-22T22:18:19.036Z,15.20
2019-04-22T22:21:19.616Z,15.30
2019-04-22T22:23:38.796Z,15.20
2019-04-22T22:25:58.309Z,15.10
2019-04-22T22:31:15.503Z,15.10
2019-04-22T22:33:45.143Z,15.00
2019-04-22T22:36:15.264Z,15.00
2019-04-22T22:38:42.601Z,14.90
2019-04-22T22:40:58.171Z,14.90
2019-04-22T22:43:34.944Z,14.90
2019-04-22T22:46:13.438Z,14.90
2019-04-22T22:49:00.282Z,14.80
2019-04-22T22:51:33.995Z,14.80
2019-04-22T22:53:58.143Z,14.80
2019-04-22T22:56:39.276Z,14.80
2019-04-22T22:59:03.093Z,14.70
2019-04-22T23:01:39.531Z,14.70
2019-04-22T23:04:08.883Z,14.60
2019-04-22T23:06:48.231Z,14.50
2019-04-22T23:09:17.369Z,14.50
2019-04-22T23:14:21.950Z,14.40
2019-04-22T23:16:39.419Z,14.50
2019-04-22T23:19:06.397Z,14.50
2019-04-22T23:21:41.962Z,14.40
2019-04-22T23:24:26.476Z,14.30
2019-04-22T23:27:11.433Z,14.30
2019-04-22T23:32:31.976Z,14.20
2019-04-22T23:35:15.330Z,14.20
2019-04-22T23:37:47.744Z,14.20
2019-04-22T23:43:00.195Z,14.20
2019-04-22T23:45:30.527Z,14.20
2019-04-22T23:47:47.440Z,14.10
2019-04-22T23:50:31.405Z,14.10
2019-04-22T23:53:04.849Z,14.00
2019-04-22T23:55:37.022Z,14.00
2019-04-22T23:58:11.123Z,14.00
